sensor_id;sensor_type;location;lat;lon;timestamp;pressure;altitude;pressure_sealevel;temperature;humidity
38780;BME280;29273;49.962;9.768;2023-06-04T00:01:10;100012.13;;;18.95;29.49
38780;BME280;29273;49.962;9.768;2023-06-04T00:03:36;100009.41;;;18.90;29.32
38780;BME280;29273;49.962;9.768;2023-06-04T00:06:01;100006.66;;;18.84;29.53
38780;BME280;29273;49.962;9.768;2023-06-04T00:08:28;100000.16;;;18.80;29.32
38780;BME280;29273;49.962;9.768;2023-06-04T00:10:53;100001.16;;;18.74;29.54
38780;BME280;29273;49.962;9.768;2023-06-04T00:13:19;100005.66;;;18.68;29.78
38780;BME280;29273;49.962;9.768;2023-06-04T00:15:45;100005.31;;;18.65;30.20
38780;BME280;29273;49.962;9.768;2023-06-04T00:18:10;100004.47;;;18.59;30.14
38780;BME280;29273;49.962;9.768;2023-06-04T00:20:38;99998.00;;;18.55;30.49
38780;BME280;29273;49.962;9.768;2023-06-04T00:23:04;99994.41;;;18.49;30.26
38780;BME280;29273;49.962;9.768;2023-06-04T00:25:31;99991.97;;;18.48;30.06
38780;BME280;29273;49.962;9.768;2023-06-04T00:27:56;99995.69;;;18.42;30.74
38780;BME280;29273;49.962;9.768;2023-06-04T00:30:22;99991.84;;;18.38;30.89
38780;BME280;29273;49.962;9.768;2023-06-04T00:32:47;99995.53;;;18.31;30.75
38780;BME280;29273;49.962;9.768;2023-06-04T00:35:13;99997.34;;;18.26;30.63
38780;BME280;29273;49.962;9.768;2023-06-04T00:37:38;99995.94;;;18.23;31.17
38780;BME280;29273;49.962;9.768;2023-06-04T00:40:05;99998.06;;;18.21;30.50
38780;BME280;29273;49.962;9.768;2023-06-04T00:42:31;100001.50;;;18.17;31.15
38780;BME280;29273;49.962;9.768;2023-06-04T00:44:57;100000.13;;;18.14;30.78
38780;BME280;29273;49.962;9.768;2023-06-04T00:47:22;100004.34;;;18.10;30.84
38780;BME280;29273;49.962;9.768;2023-06-04T00:49:48;100003.78;;;18.08;31.17
38780;BME280;29273;49.962;9.768;2023-06-04T00:52:15;100005.09;;;18.05;30.69
38780;BME280;29273;49.962;9.768;2023-06-04T00:54:41;100010.72;;;18.04;31.00
38780;BME280;29273;49.962;9.768;2023-06-04T00:57:07;100010.72;;;18.04;31.07
38780;BME280;29273;49.962;9.768;2023-06-04T00:59:35;100004.28;;;18.05;30.66
38780;BME280;29273;49.962;9.768;2023-06-04T01:02:06;100005.66;;;18.07;30.52
38780;BME280;29273;49.962;9.768;2023-06-04T01:04:54;100010.72;;;18.04;29.88
38780;BME280;29273;49.962;9.768;2023-06-04T01:07:22;100011.69;;;17.98;30.98
38780;BME280;29273;49.962;9.768;2023-06-04T01:09:49;100003.31;;;17.94;31.27
38780;BME280;29273;49.962;9.768;2023-06-04T01:12:14;100011.84;;;17.91;31.26
38780;BME280;29273;49.962;9.768;2023-06-04T01:14:40;100006.19;;;17.87;31.30
38780;BME280;29273;49.962;9.768;2023-06-04T01:17:26;100008.38;;;17.90;30.22
38780;BME280;29273;49.962;9.768;2023-06-04T01:23:15;100009.00;;;17.81;30.68
38780;BME280;29273;49.962;9.768;2023-06-04T01:25:44;100004.28;;;17.71;31.49
38780;BME280;29273;49.962;9.768;2023-06-04T01:28:15;100009.06;;;17.69;31.97
38780;BME280;29273;49.962;9.768;2023-06-04T01:30:43;100006.41;;;17.69;31.35
38780;BME280;29273;49.962;9.768;2023-06-04T01:33:13;100011.69;;;17.64;31.69
38780;BME280;29273;49.962;9.768;2023-06-04T01:35:39;100010.75;;;17.58;31.99
38780;BME280;29273;49.962;9.768;2023-06-04T01:38:05;100013.34;;;17.53;31.88
38780;BME280;29273;49.962;9.768;2023-06-04T01:40:31;100009.81;;;17.47;31.54
38780;BME280;29273;49.962;9.768;2023-06-04T01:42:57;100005.97;;;17.43;31.90
38780;BME280;29273;49.962;9.768;2023-06-04T01:45:25;100001.31;;;17.38;31.68
38780;BME280;29273;49.962;9.768;2023-06-04T01:47:51;100007.66;;;17.32;32.22
38780;BME280;29273;49.962;9.768;2023-06-04T01:50:17;100016.41;;;17.28;32.35
38780;BME280;29273;49.962;9.768;2023-06-04T01:52:43;100022.25;;;17.25;32.47
38780;BME280;29273;49.962;9.768;2023-06-04T01:55:10;100016.31;;;17.23;32.16
38780;BME280;29273;49.962;9.768;2023-06-04T01:57:40;100008.69;;;17.14;32.70
38780;BME280;29273;49.962;9.768;2023-06-04T02:00:08;100017.19;;;17.11;32.45
38780;BME280;29273;49.962;9.768;2023-06-04T02:02:44;100015.22;;;17.07;32.53
38780;BME280;29273;49.962;9.768;2023-06-04T02:05:11;100017.25;;;16.99;33.47
38780;BME280;29273;49.962;9.768;2023-06-04T02:07:38;100023.06;;;16.96;33.25
38780;BME280;29273;49.962;9.768;2023-06-04T02:10:24;100013.31;;;16.90;31.43
38780;BME280;29273;49.962;9.768;2023-06-04T02:12:56;100012.75;;;16.88;32.51
38780;BME280;29273;49.962;9.768;2023-06-04T02:15:22;100012.78;;;16.64;31.66
38780;BME280;29273;49.962;9.768;2023-06-04T02:17:48;100015.31;;;16.71;34.05
38780;BME280;29273;49.962;9.768;2023-06-04T02:20:16;100014.75;;;16.69;34.14
38780;BME280;29273;49.962;9.768;2023-06-04T02:22:42;100022.44;;;16.65;34.26
38780;BME280;29273;49.962;9.768;2023-06-04T02:25:08;100021.28;;;16.61;34.59
38780;BME280;29273;49.962;9.768;2023-06-04T02:27:36;100028.50;;;16.61;34.41
38780;BME280;29273;49.962;9.768;2023-06-04T02:30:03;100026.84;;;16.60;34.63
38780;BME280;29273;49.962;9.768;2023-06-04T02:32:29;100023.03;;;16.56;34.86
38780;BME280;29273;49.962;9.768;2023-06-04T02:34:55;100028.63;;;16.54;35.29
38780;BME280;29273;49.962;9.768;2023-06-04T02:37:21;100028.84;;;16.53;35.14
38780;BME280;29273;49.962;9.768;2023-06-04T02:39:46;100025.63;;;16.51;35.88
38780;BME280;29273;49.962;9.768;2023-06-04T02:42:12;100031.44;;;16.48;35.47
38780;BME280;29273;49.962;9.768;2023-06-04T02:44:37;100029.22;;;16.44;35.62
38780;BME280;29273;49.962;9.768;2023-06-04T02:47:03;100021.91;;;16.40;35.76
38780;BME280;29273;49.962;9.768;2023-06-04T02:49:29;100028.53;;;16.37;35.75
38780;BME280;29273;49.962;9.768;2023-06-04T02:51:54;100024.47;;;16.35;35.56
38780;BME280;29273;49.962;9.768;2023-06-04T02:54:20;100028.44;;;16.32;35.75
38780;BME280;29273;49.962;9.768;2023-06-04T02:56:45;100030.50;;;16.30;35.98
38780;BME280;29273;49.962;9.768;2023-06-04T02:59:11;100027.50;;;16.26;35.82
38780;BME280;29273;49.962;9.768;2023-06-04T03:01:36;100026.34;;;16.22;35.83
38780;BME280;29273;49.962;9.768;2023-06-04T03:04:02;100034.59;;;16.21;35.85
38780;BME280;29273;49.962;9.768;2023-06-04T03:06:30;100035.84;;;16.18;36.00
38780;BME280;29273;49.962;9.768;2023-06-04T03:08:58;100035.28;;;16.16;35.97
38780;BME280;29273;49.962;9.768;2023-06-04T03:11:23;100033.06;;;16.13;36.05
38780;BME280;29273;49.962;9.768;2023-06-04T03:13:49;100041.78;;;16.08;36.07
38780;BME280;29273;49.962;9.768;2023-06-04T03:16:17;100049.22;;;16.06;36.06
38780;BME280;29273;49.962;9.768;2023-06-04T03:18:42;100044.00;;;16.00;36.02
38780;BME280;29273;49.962;9.768;2023-06-04T03:21:09;100044.91;;;15.94;35.94
38780;BME280;29273;49.962;9.768;2023-06-04T03:23:38;100042.13;;;15.88;35.90
38780;BME280;29273;49.962;9.768;2023-06-04T03:26:04;100045.50;;;15.84;35.62
38780;BME280;29273;49.962;9.768;2023-06-04T03:28:31;100043.28;;;15.81;35.63
38780;BME280;29273;49.962;9.768;2023-06-04T03:30:59;100040.69;;;15.74;36.21
38780;BME280;29273;49.962;9.768;2023-06-04T03:33:25;100044.63;;;15.71;35.67
38780;BME280;29273;49.962;9.768;2023-06-04T03:35:52;100043.25;;;15.69;35.91
38780;BME280;29273;49.962;9.768;2023-06-04T03:38:24;100043.69;;;15.66;35.79
38780;BME280;29273;49.962;9.768;2023-06-04T03:40:50;100042.28;;;15.63;36.48
38780;BME280;29273;49.962;9.768;2023-06-04T03:43:21;100037.53;;;15.65;35.00
38780;BME280;29273;49.962;9.768;2023-06-04T03:45:50;100039.91;;;15.43;34.20
38780;BME280;29273;49.962;9.768;2023-06-04T03:48:16;100042.03;;;15.53;36.34
38780;BME280;29273;49.962;9.768;2023-06-04T03:50:42;100042.25;;;15.51;36.56
38780;BME280;29273;49.962;9.768;2023-06-04T03:53:11;100040.25;;;15.47;36.87
38780;BME280;29273;49.962;9.768;2023-06-04T03:55:37;100031.09;;;15.43;37.01
38780;BME280;29273;49.962;9.768;2023-06-04T03:58:05;100044.44;;;15.43;36.95
38780;BME280;29273;49.962;9.768;2023-06-04T04:00:31;100039.34;;;15.41;36.89
38780;BME280;29273;49.962;9.768;2023-06-04T04:03:00;100042.00;;;15.41;37.24
38780;BME280;29273;49.962;9.768;2023-06-04T04:05:28;100043.88;;;15.41;37.31
38780;BME280;29273;49.962;9.768;2023-06-04T04:07:54;100042.00;;;15.41;37.37
38780;BME280;29273;49.962;9.768;2023-06-04T04:10:24;100048.16;;;15.42;37.35
38780;BME280;29273;49.962;9.768;2023-06-04T04:12:49;100048.16;;;15.42;37.33
38780;BME280;29273;49.962;9.768;2023-06-04T04:15:18;100049.56;;;15.44;37.51
38780;BME280;29273;49.962;9.768;2023-06-04T04:17:44;100055.69;;;15.45;37.38
38780;BME280;29273;49.962;9.768;2023-06-04T04:20:10;100056.28;;;15.47;37.19
38780;BME280;29273;49.962;9.768;2023-06-04T04:22:42;100057.25;;;15.52;36.27
38780;BME280;29273;49.962;9.768;2023-06-04T04:25:09;100054.00;;;15.50;37.59
38780;BME280;29273;49.962;9.768;2023-06-04T04:27:35;100057.47;;;15.51;37.63
38780;BME280;29273;49.962;9.768;2023-06-04T04:30:06;100055.38;;;15.53;37.54
38780;BME280;29273;49.962;9.768;2023-06-04T04:32:33;100058.03;;;15.53;37.84
38780;BME280;29273;49.962;9.768;2023-06-04T04:34:58;100060.25;;;15.56;38.06
38780;BME280;29273;49.962;9.768;2023-06-04T04:37:31;100055.72;;;15.57;38.21
38780;BME280;29273;49.962;9.768;2023-06-04T04:39:57;100056.31;;;15.59;38.02
38780;BME280;29273;49.962;9.768;2023-06-04T04:42:25;100066.75;;;15.60;38.03
38780;BME280;29273;49.962;9.768;2023-06-04T04:44:51;100069.19;;;15.62;38.54
38780;BME280;29273;49.962;9.768;2023-06-04T04:47:18;100064.69;;;15.62;38.52
38780;BME280;29273;49.962;9.768;2023-06-04T04:49:44;100067.16;;;15.64;38.61
38780;BME280;29273;49.962;9.768;2023-06-04T04:52:10;100071.41;;;15.65;38.63
38780;BME280;29273;49.962;9.768;2023-06-04T04:54:37;100071.19;;;15.66;38.59
38780;BME280;29273;49.962;9.768;2023-06-04T04:57:04;100069.09;;;15.68;38.57
38780;BME280;29273;49.962;9.768;2023-06-04T04:59:30;100071.53;;;15.70;38.37
38780;BME280;29273;49.962;9.768;2023-06-04T05:01:57;100074.22;;;15.70;38.61
38780;BME280;29273;49.962;9.768;2023-06-04T05:04:23;100080.13;;;15.72;38.63
38780;BME280;29273;49.962;9.768;2023-06-04T05:06:49;100086.88;;;15.75;39.06
38780;BME280;29273;49.962;9.768;2023-06-04T05:09:14;100079.47;;;15.77;38.47
38780;BME280;29273;49.962;9.768;2023-06-04T05:11:41;100083.56;;;15.79;38.80
38780;BME280;29273;49.962;9.768;2023-06-04T05:14:06;100084.72;;;15.83;39.10
38780;BME280;29273;49.962;9.768;2023-06-04T05:16:32;100080.78;;;15.86;39.07
38780;BME280;29273;49.962;9.768;2023-06-04T05:19:01;100093.47;;;15.90;38.92
38780;BME280;29273;49.962;9.768;2023-06-04T05:21:31;100084.16;;;15.93;39.14
38780;BME280;29273;49.962;9.768;2023-06-04T05:24:01;100087.78;;;15.99;38.84
38780;BME280;29273;49.962;9.768;2023-06-04T05:26:31;100091.84;;;16.01;38.72
38780;BME280;29273;49.962;9.768;2023-06-04T05:29:00;100088.47;;;16.06;39.17
38780;BME280;29273;49.962;9.768;2023-06-04T05:31:30;100095.81;;;16.11;38.42
38780;BME280;29273;49.962;9.768;2023-06-04T05:33:59;100099.63;;;16.15;38.94
38780;BME280;29273;49.962;9.768;2023-06-04T05:36:29;100095.22;;;16.20;38.25
38780;BME280;29273;49.962;9.768;2023-06-04T05:38:57;100099.28;;;16.23;39.01
38780;BME280;29273;49.962;9.768;2023-06-04T05:41:28;100101.41;;;16.33;38.05
38780;BME280;29273;49.962;9.768;2023-06-04T05:43:55;100092.34;;;16.34;38.59
38780;BME280;29273;49.962;9.768;2023-06-04T05:46:20;100093.72;;;16.36;38.70
38780;BME280;29273;49.962;9.768;2023-06-04T05:48:47;100091.97;;;16.42;38.48
38780;BME280;29273;49.962;9.768;2023-06-04T05:51:13;100092.34;;;16.45;38.22
38780;BME280;29273;49.962;9.768;2023-06-04T05:53:40;100095.94;;;16.51;38.25
38780;BME280;29273;49.962;9.768;2023-06-04T05:56:06;100091.72;;;16.55;38.22
38780;BME280;29273;49.962;9.768;2023-06-04T05:58:33;100091.03;;;16.60;37.73
38780;BME280;29273;49.962;9.768;2023-06-04T06:01:00;100092.19;;;16.64;37.66
38780;BME280;29273;49.962;9.768;2023-06-04T06:03:25;100092.31;;;16.69;37.34
38780;BME280;29273;49.962;9.768;2023-06-04T06:05:53;100098.34;;;16.76;37.95
38780;BME280;29273;49.962;9.768;2023-06-04T06:08:21;100091.25;;;16.82;36.39
38780;BME280;29273;49.962;9.768;2023-06-04T06:10:47;100085.19;;;16.87;36.86
38780;BME280;29273;49.962;9.768;2023-06-04T06:13:13;100094.16;;;16.92;35.87
38780;BME280;29273;49.962;9.768;2023-06-04T06:15:38;100094.03;;;16.99;36.34
38780;BME280;29273;49.962;9.768;2023-06-04T06:18:04;100097.59;;;17.05;36.43
38780;BME280;29273;49.962;9.768;2023-06-04T06:20:30;100096.44;;;17.12;35.28
38780;BME280;29273;49.962;9.768;2023-06-04T06:23:06;100094.41;;;17.19;35.72
38780;BME280;29273;49.962;9.768;2023-06-04T06:25:31;100091.84;;;17.25;35.23
38780;BME280;29273;49.962;9.768;2023-06-04T06:28:02;100098.69;;;17.32;34.43
38780;BME280;29273;49.962;9.768;2023-06-04T06:30:28;100105.72;;;17.38;34.81
38780;BME280;29273;49.962;9.768;2023-06-04T06:32:53;100099.44;;;17.45;35.23
38780;BME280;29273;49.962;9.768;2023-06-04T06:35:19;100099.28;;;17.51;34.36
38780;BME280;29273;49.962;9.768;2023-06-04T06:37:44;100101.00;;;17.57;34.40
38780;BME280;29273;49.962;9.768;2023-06-04T06:40:10;100107.50;;;17.62;34.17
38780;BME280;29273;49.962;9.768;2023-06-04T06:42:36;100102.81;;;17.69;33.92
38780;BME280;29273;49.962;9.768;2023-06-04T06:45:01;100105.34;;;17.75;33.99
38780;BME280;29273;49.962;9.768;2023-06-04T06:47:27;100103.31;;;17.83;33.92
38780;BME280;29273;49.962;9.768;2023-06-04T06:49:52;100105.88;;;17.89;34.36
38780;BME280;29273;49.962;9.768;2023-06-04T06:52:18;100104.06;;;17.95;34.14
38780;BME280;29273;49.962;9.768;2023-06-04T06:54:45;100107.44;;;18.02;34.09
38780;BME280;29273;49.962;9.768;2023-06-04T06:57:11;100107.25;;;18.09;33.34
38780;BME280;29273;49.962;9.768;2023-06-04T06:59:36;100104.66;;;18.14;33.46
38780;BME280;29273;49.962;9.768;2023-06-04T07:02:02;100109.06;;;18.20;33.37
38780;BME280;29273;49.962;9.768;2023-06-04T07:04:27;100105.13;;;18.28;33.58
38780;BME280;29273;49.962;9.768;2023-06-04T07:06:52;100112.19;;;18.34;33.34
38780;BME280;29273;49.962;9.768;2023-06-04T07:09:18;100098.88;;;18.39;33.23
38780;BME280;29273;49.962;9.768;2023-06-04T07:11:43;100111.28;;;18.45;33.24
38780;BME280;29273;49.962;9.768;2023-06-04T07:14:09;100106.00;;;18.51;33.44
38780;BME280;29273;49.962;9.768;2023-06-04T07:16:34;100107.13;;;18.55;33.47
38780;BME280;29273;49.962;9.768;2023-06-04T07:19:01;100111.00;;;18.64;33.67
38780;BME280;29273;49.962;9.768;2023-06-04T07:21:27;100104.91;;;18.68;33.41
38780;BME280;29273;49.962;9.768;2023-06-04T07:23:52;100111.16;;;18.74;32.22
38780;BME280;29273;49.962;9.768;2023-06-04T07:26:18;100105.59;;;18.81;32.87
38780;BME280;29273;49.962;9.768;2023-06-04T07:28:44;100105.69;;;18.86;32.19
38780;BME280;29273;49.962;9.768;2023-06-04T07:31:09;100102.81;;;18.93;32.95
38780;BME280;29273;49.962;9.768;2023-06-04T07:33:35;100106.63;;;18.97;32.79
38780;BME280;29273;49.962;9.768;2023-06-04T07:36:10;100108.59;;;19.07;33.00
38780;BME280;29273;49.962;9.768;2023-06-04T07:38:35;100107.88;;;19.11;32.04
38780;BME280;29273;49.962;9.768;2023-06-04T07:41:01;100107.13;;;19.16;32.53
38780;BME280;29273;49.962;9.768;2023-06-04T07:43:26;100107.97;;;19.21;31.53
38780;BME280;29273;49.962;9.768;2023-06-04T07:45:52;100113.16;;;19.28;31.58
38780;BME280;29273;49.962;9.768;2023-06-04T07:48:17;100105.72;;;19.35;31.40
38780;BME280;29273;49.962;9.768;2023-06-04T07:50:43;100105.78;;;19.40;31.98
38780;BME280;29273;49.962;9.768;2023-06-04T07:53:08;100103.16;;;19.46;32.29
38780;BME280;29273;49.962;9.768;2023-06-04T07:55:34;100100.00;;;19.54;31.52
38780;BME280;29273;49.962;9.768;2023-06-04T07:58:00;100104.34;;;19.60;30.96
38780;BME280;29273;49.962;9.768;2023-06-04T08:00:25;100101.44;;;19.67;31.51
38780;BME280;29273;49.962;9.768;2023-06-04T08:02:51;100103.97;;;19.73;31.10
38780;BME280;29273;49.962;9.768;2023-06-04T08:05:17;100105.38;;;19.81;31.42
38780;BME280;29273;49.962;9.768;2023-06-04T08:07:43;100105.41;;;19.86;31.51
38780;BME280;29273;49.962;9.768;2023-06-04T08:10:09;100101.72;;;19.92;31.00
38780;BME280;29273;49.962;9.768;2023-06-04T08:12:35;100106.06;;;19.99;30.84
38780;BME280;29273;49.962;9.768;2023-06-04T08:15:00;100102.09;;;20.06;30.90
38780;BME280;29273;49.962;9.768;2023-06-04T08:17:26;100103.22;;;20.10;30.38
38780;BME280;29273;49.962;9.768;2023-06-04T08:19:56;100104.84;;;20.17;30.23
38780;BME280;29273;49.962;9.768;2023-06-04T08:22:36;100106.50;;;20.23;29.79
38780;BME280;29273;49.962;9.768;2023-06-04T08:25:21;100104.41;;;20.30;29.42
38780;BME280;29273;49.962;9.768;2023-06-04T08:28:07;100101.22;;;20.38;28.79
38780;BME280;29273;49.962;9.768;2023-06-04T08:30:52;100105.56;;;20.44;28.93
38780;BME280;29273;49.962;9.768;2023-06-04T08:33:33;100100.22;;;20.49;29.46
38780;BME280;29273;49.962;9.768;2023-06-04T08:36:01;100103.47;;;20.57;29.09
38780;BME280;29273;49.962;9.768;2023-06-04T08:38:27;100104.34;;;20.62;29.20
38780;BME280;29273;49.962;9.768;2023-06-04T08:40:53;100111.41;;;20.68;29.11
38780;BME280;29273;49.962;9.768;2023-06-04T08:43:22;100110.09;;;20.76;29.06
38780;BME280;29273;49.962;9.768;2023-06-04T08:45:49;100103.91;;;20.81;29.33
38780;BME280;29273;49.962;9.768;2023-06-04T08:48:18;100101.53;;;20.89;29.78
38780;BME280;29273;49.962;9.768;2023-06-04T08:50:47;100097.78;;;20.96;29.93
38780;BME280;29273;49.962;9.768;2023-06-04T08:53:15;100101.56;;;21.00;29.82
38780;BME280;29273;49.962;9.768;2023-06-04T08:55:40;100100.50;;;21.01;28.72
38780;BME280;29273;49.962;9.768;2023-06-04T08:58:07;100102.41;;;21.05;27.93
38780;BME280;29273;49.962;9.768;2023-06-04T09:00:35;100104.56;;;21.09;27.49
38780;BME280;29273;49.962;9.768;2023-06-04T09:03:02;100093.56;;;21.15;27.11
38780;BME280;29273;49.962;9.768;2023-06-04T09:05:29;100099.75;;;21.21;27.18
38780;BME280;29273;49.962;9.768;2023-06-04T09:07:56;100107.31;;;21.29;27.24
38780;BME280;29273;49.962;9.768;2023-06-04T09:10:24;100105.69;;;21.33;26.42
38780;BME280;29273;49.962;9.768;2023-06-04T09:12:52;100101.16;;;21.39;26.51
38780;BME280;29273;49.962;9.768;2023-06-04T09:15:19;100100.34;;;21.43;26.81
38780;BME280;29273;49.962;9.768;2023-06-04T09:17:44;100098.50;;;21.49;26.61
38780;BME280;29273;49.962;9.768;2023-06-04T09:20:22;100098.50;;;21.59;28.47
38780;BME280;29273;49.962;9.768;2023-06-04T09:22:49;100098.25;;;21.61;27.30
38780;BME280;29273;49.962;9.768;2023-06-04T09:25:21;100097.72;;;21.74;28.12
38780;BME280;29273;49.962;9.768;2023-06-04T09:27:47;100104.47;;;21.72;26.27
38780;BME280;29273;49.962;9.768;2023-06-04T09:30:13;100101.50;;;21.78;26.24
38780;BME280;29273;49.962;9.768;2023-06-04T09:32:39;100105.28;;;21.83;26.36
38780;BME280;29273;49.962;9.768;2023-06-04T09:37:37;100101.50;;;21.94;26.77
38780;BME280;29273;49.962;9.768;2023-06-04T09:40:03;100097.16;;;21.98;26.10
38780;BME280;29273;49.962;9.768;2023-06-04T09:42:42;100096.91;;;22.10;27.36
38780;BME280;29273;49.962;9.768;2023-06-04T09:45:08;100103.91;;;22.11;25.84
38780;BME280;29273;49.962;9.768;2023-06-04T09:47:43;100093.94;;;22.22;27.03
38780;BME280;29273;49.962;9.768;2023-06-04T09:50:13;100097.69;;;22.26;26.47
38780;BME280;29273;49.962;9.768;2023-06-04T09:52:38;100085.28;;;22.25;24.97
38780;BME280;29273;49.962;9.768;2023-06-04T09:55:17;100079.09;;;22.34;26.65
38780;BME280;29273;49.962;9.768;2023-06-04T09:57:51;100075.84;;;22.38;26.18
38780;BME280;29273;49.962;9.768;2023-06-04T10:02:46;100081.47;;;22.46;26.38
38780;BME280;29273;49.962;9.768;2023-06-04T10:05:13;100086.88;;;22.46;25.75
38780;BME280;29273;49.962;9.768;2023-06-04T10:07:42;100082.03;;;22.53;25.62
38780;BME280;29273;49.962;9.768;2023-06-04T10:10:11;100077.94;;;22.56;24.77
38780;BME280;29273;49.962;9.768;2023-06-04T10:12:39;100077.69;;;22.58;24.60
38780;BME280;29273;49.962;9.768;2023-06-04T10:15:11;100079.81;;;22.66;25.68
38780;BME280;29273;49.962;9.768;2023-06-04T10:17:37;100073.88;;;22.64;24.73
38780;BME280;29273;49.962;9.768;2023-06-04T10:20:03;100082.75;;;22.69;25.02
38780;BME280;29273;49.962;9.768;2023-06-04T10:22:34;100087.63;;;22.72;24.62
38780;BME280;29273;49.962;9.768;2023-06-04T10:25:00;100075.19;;;22.77;24.46
38780;BME280;29273;49.962;9.768;2023-06-04T10:27:30;100078.41;;;22.84;25.69
38780;BME280;29273;49.962;9.768;2023-06-04T10:29:56;100080.03;;;22.85;24.85
38780;BME280;29273;49.962;9.768;2023-06-04T10:32:22;100068.66;;;22.88;24.55
38780;BME280;29273;49.962;9.768;2023-06-04T10:34:47;100071.63;;;22.91;24.41
38780;BME280;29273;49.962;9.768;2023-06-04T10:39:51;100074.28;;;23.07;25.66
38780;BME280;29273;49.962;9.768;2023-06-04T10:42:18;100068.03;;;23.01;23.99
38780;BME280;29273;49.962;9.768;2023-06-04T10:44:49;100069.38;;;23.14;25.01
38780;BME280;29273;49.962;9.768;2023-06-04T10:47:23;100067.72;;;23.18;25.11
38780;BME280;29273;49.962;9.768;2023-06-04T10:49:50;100077.72;;;23.18;24.01
38780;BME280;29273;49.962;9.768;2023-06-04T10:52:17;100071.47;;;23.22;24.23
38780;BME280;29273;49.962;9.768;2023-06-04T10:54:44;100070.91;;;23.25;23.67
38780;BME280;29273;49.962;9.768;2023-06-04T10:57:14;100071.13;;;23.34;23.92
38780;BME280;29273;49.962;9.768;2023-06-04T10:59:41;100071.41;;;23.33;23.63
38780;BME280;29273;49.962;9.768;2023-06-04T11:02:07;100069.78;;;23.37;23.78
38780;BME280;29273;49.962;9.768;2023-06-04T11:04:33;100070.03;;;23.40;24.51
38780;BME280;29273;49.962;9.768;2023-06-04T11:07:06;100067.25;;;23.51;24.47
38780;BME280;29273;49.962;9.768;2023-06-04T11:09:48;100063.69;;;23.55;24.71
38780;BME280;29273;49.962;9.768;2023-06-04T11:12:14;100066.69;;;23.54;22.16
38780;BME280;29273;49.962;9.768;2023-06-04T11:14:39;100063.94;;;23.59;22.73
38780;BME280;29273;49.962;9.768;2023-06-04T11:17:12;100063.56;;;23.71;25.19
38780;BME280;29273;49.962;9.768;2023-06-04T11:19:38;100061.94;;;23.70;22.86
38780;BME280;29273;49.962;9.768;2023-06-04T11:22:04;100061.94;;;23.75;23.58
38780;BME280;29273;49.962;9.768;2023-06-04T11:24:32;100054.56;;;23.80;24.27
38780;BME280;29273;49.962;9.768;2023-06-04T11:26:58;100061.31;;;23.83;23.20
38780;BME280;29273;49.962;9.768;2023-06-04T11:29:27;100043.72;;;23.86;23.50
38780;BME280;29273;49.962;9.768;2023-06-04T11:31:53;100055.06;;;23.88;22.50
38780;BME280;29273;49.962;9.768;2023-06-04T11:34:23;100047.13;;;23.96;23.56
38780;BME280;29273;49.962;9.768;2023-06-04T11:36:48;100054.72;;;23.94;23.06
38780;BME280;29273;49.962;9.768;2023-06-04T11:39:21;100052.25;;;23.98;23.00
38780;BME280;29273;49.962;9.768;2023-06-04T11:41:46;100050.34;;;24.04;22.66
38780;BME280;29273;49.962;9.768;2023-06-04T11:44:13;100051.66;;;24.06;22.37
38780;BME280;29273;49.962;9.768;2023-06-04T11:46:42;100051.56;;;24.16;23.36
38780;BME280;29273;49.962;9.768;2023-06-04T11:49:17;100046.09;;;24.22;22.93
38780;BME280;29273;49.962;9.768;2023-06-04T11:51:50;100046.84;;;24.27;23.54
38780;BME280;29273;49.962;9.768;2023-06-04T11:54:17;100046.63;;;24.24;21.14
38780;BME280;29273;49.962;9.768;2023-06-04T11:56:43;100043.06;;;24.28;22.14
38780;BME280;29273;49.962;9.768;2023-06-04T11:59:11;100041.09;;;24.34;21.91
38780;BME280;29273;49.962;9.768;2023-06-04T12:01:47;100033.66;;;24.45;23.22
38780;BME280;29273;49.962;9.768;2023-06-04T12:04:17;100028.81;;;24.42;22.29
38780;BME280;29273;49.962;9.768;2023-06-04T12:06:53;100033.00;;;24.53;23.32
38780;BME280;29273;49.962;9.768;2023-06-04T12:09:20;100031.91;;;24.54;22.56
38780;BME280;29273;49.962;9.768;2023-06-04T12:11:46;100031.88;;;24.59;22.61
38780;BME280;29273;49.962;9.768;2023-06-04T12:14:16;100031.47;;;24.71;23.50
38780;BME280;29273;49.962;9.768;2023-06-04T12:16:42;100029.59;;;24.71;22.04
38780;BME280;29273;49.962;9.768;2023-06-04T12:19:12;100018.31;;;24.83;22.72
38780;BME280;29273;49.962;9.768;2023-06-04T12:21:39;100021.81;;;24.84;22.31
38780;BME280;29273;49.962;9.768;2023-06-04T12:24:11;100018.19;;;24.93;22.34
38780;BME280;29273;49.962;9.768;2023-06-04T12:26:37;100013.06;;;24.92;21.94
38780;BME280;29273;49.962;9.768;2023-06-04T12:29:10;100019.41;;;25.01;23.34
38780;BME280;29273;49.962;9.768;2023-06-04T12:31:40;100017.00;;;25.00;21.68
38780;BME280;29273;49.962;9.768;2023-06-04T12:34:06;100024.25;;;25.04;21.33
38780;BME280;29273;49.962;9.768;2023-06-04T12:36:32;100021.47;;;25.09;22.07
38780;BME280;29273;49.962;9.768;2023-06-04T12:39:03;100022.72;;;25.17;22.52
38780;BME280;29273;49.962;9.768;2023-06-04T12:41:29;100010.50;;;25.20;21.17
38780;BME280;29273;49.962;9.768;2023-06-04T12:43:55;100000.66;;;25.24;21.58
38780;BME280;29273;49.962;9.768;2023-06-04T12:46:21;100004.72;;;25.26;21.96
38780;BME280;29273;49.962;9.768;2023-06-04T12:48:48;99999.22;;;25.32;21.21
38780;BME280;29273;49.962;9.768;2023-06-04T12:51:13;100002.66;;;25.37;20.76
38780;BME280;29273;49.962;9.768;2023-06-04T12:53:42;100001.75;;;25.42;21.18
38780;BME280;29273;49.962;9.768;2023-06-04T12:56:09;99991.63;;;25.47;20.86
38780;BME280;29273;49.962;9.768;2023-06-04T12:58:34;99986.41;;;25.51;21.37
38780;BME280;29273;49.962;9.768;2023-06-04T13:01:00;99995.56;;;25.55;21.46
38780;BME280;29273;49.962;9.768;2023-06-04T13:03:26;99990.84;;;25.61;21.24